»·PEaware :: N5756Q KOXR-KLAS

N5756Q :: KOXR-KLAS

FLIGHT INFORMATION

Flight Status: Arrived
Operator: Privately registered:
United States
More flights under this callsign
Pilot: Anonymous 11620 (11620)
Aircraft: MOONEY M-20 201 202 205 220 ATS MSE
(M20P)
More flights by this aircraft type
Origin: KOXR Oxnard
United States
Destination: KLAS Harry Reid Intl
United States
More flights between these airports :: More routes between these airports
Route: FIM V386 PMD V12 HEC CRESO4
File this flight plan on PilotEdge
Remarks: CRESO 4 Arrival
Altitude:
(Current/Filed)
11,000ft
Speed:
(Current/Filed)
180kts
Departed: 27-May-21 08:43 AM
Arrived: 27-May-21 10:16 AM
Distance/Time
Traveled:
229nm/1:33
Distance/Time
To Go:
Arrived

Flight Plot

Page will automatically refresh every two minutes.

Flight plan parsing failed; only flown route is shown


Map Options




Map Legend


Flown Route
Filed Route
Departure Airport
Arrival Airport
Navaid (VOR, NDB)
Fix

Horizontal Profiles

Position Reports

Time Latitude Longitude Heading Altitude Ground
Speed
27-May-21 08:24 34.198999 -119.197763 269 46ft 0kts
27-May-21 08:25 34.198999 -119.197763 269 46ft 0kts
27-May-21 08:26 34.198999 -119.197763 269 46ft 0kts
27-May-21 08:27 34.198999 -119.197763 269 46ft 0kts
27-May-21 08:28 34.198999 -119.197763 269 46ft 0kts
27-May-21 08:29 34.198999 -119.197763 269 46ft 0kts
27-May-21 08:30 34.198999 -119.197763 269 46ft 0kts
27-May-21 08:31 34.198999 -119.197763 269 46ft 0kts
27-May-21 08:32 34.198999 -119.197763 269 46ft 0kts
27-May-21 08:33 34.198999 -119.197763 269 46ft 0kts
27-May-21 08:34 34.198999 -119.197763 269 46ft 0kts
27-May-21 08:35 34.198999 -119.197763 269 46ft 0kts
27-May-21 08:36 34.198999 -119.197763 269 46ft 0kts
27-May-21 08:37 34.198999 -119.197763 269 46ft 0kts
27-May-21 08:38 34.198999 -119.197763 269 46ft 0kts
27-May-21 08:39 34.198999 -119.197763 269 46ft 0kts
27-May-21 08:40 34.199691 -119.197794 51 47ft 8kts
27-May-21 08:41 34.199867 -119.197580 13 47ft 0kts
27-May-21 08:42 34.200809 -119.203688 271 64ft 81kts
27-May-21 08:43 34.200358 -119.239718 269 697ft 122kts
27-May-21 08:44 34.199403 -119.283089 269 1310ft 133kts
27-May-21 08:45 34.198277 -119.327884 269 1979ft 132kts
27-May-21 08:46 34.196980 -119.371756 269 2674ft 129kts
27-May-21 08:47 34.173735 -119.383060 118 3355ft 127kts
27-May-21 08:48 34.159558 -119.344518 112 4058ft 126kts
27-May-21 08:49 34.146433 -119.303853 86 4757ft 132kts
27-May-21 08:50 34.152512 -119.260592 58 5463ft 131kts
27-May-21 08:51 34.171192 -119.222748 57 6166ft 130kts
27-May-21 08:52 34.189746 -119.185577 53 6865ft 128kts
27-May-21 08:53 34.209447 -119.150516 52 7562ft 124kts
27-May-21 08:54 34.229980 -119.115442 52 8003ft 146kts
27-May-21 08:55 34.255901 -119.071894 52 8424ft 162kts
27-May-21 08:56 34.281515 -119.027178 53 9024ft 161kts
27-May-21 08:57 34.306785 -118.982902 54 9622ft 159kts
27-May-21 08:58 34.330871 -118.938331 57 10220ft 157kts
27-May-21 08:59 34.353480 -118.893559 65 10816ft 155kts
27-May-21 09:00 34.370759 -118.842945 69 11016ft 174kts
27-May-21 09:01 34.388321 -118.785563 70 11013ft 187kts
27-May-21 09:02 34.408252 -118.726493 67 11011ft 191kts
27-May-21 09:03 34.429311 -118.667268 66 11011ft 192kts
27-May-21 09:04 34.450447 -118.607845 66 11014ft 192kts
27-May-21 09:05 34.471578 -118.548452 66 11019ft 192kts
27-May-21 09:06 34.492823 -118.488775 66 11020ft 192kts
27-May-21 09:07 34.514046 -118.429255 66 11015ft 192kts
27-May-21 09:08 34.533744 -118.368961 70 11004ft 192kts
27-May-21 09:10 34.552324 -118.308242 70 10989ft 192kts
27-May-21 09:11 34.571262 -118.247366 70 10997ft 192kts
27-May-21 09:12 34.590023 -118.186919 70 10999ft 192kts
27-May-21 09:13 34.609507 -118.126428 68 11008ft 192kts
27-May-21 09:14 34.627889 -118.066103 87 11031ft 190kts
27-May-21 09:15 34.637317 -118.002323 79 11007ft 192kts
27-May-21 09:16 34.648063 -117.938672 78 10999ft 192kts
27-May-21 09:17 34.655170 -117.874495 83 10991ft 192kts
27-May-21 09:18 34.659257 -117.809796 86 10987ft 192kts
27-May-21 09:19 34.665187 -117.745454 82 10994ft 191kts
27-May-21 09:20 34.672194 -117.681325 82 11001ft 191kts
27-May-21 09:21 34.679956 -117.617207 81 11009ft 192kts
27-May-21 09:22 34.687138 -117.552793 82 11013ft 192kts
27-May-21 09:23 34.694088 -117.488374 82 11013ft 192kts
27-May-21 09:24 34.701033 -117.424073 82 11013ft 192kts
27-May-21 09:25 34.708027 -117.359427 82 11013ft 192kts
27-May-21 09:26 34.715022 -117.294868 83 11013ft 192kts
27-May-21 09:27 34.722019 -117.230386 83 11013ft 192kts
27-May-21 09:28 34.728286 -117.165559 83 11011ft 193kts
27-May-21 09:29 34.734418 -117.100577 83 11007ft 194kts
27-May-21 09:30 34.740742 -117.035545 83 11030ft 192kts
27-May-21 09:31 34.747372 -116.971113 83 11017ft 192kts
27-May-21 09:32 34.755037 -116.906634 83 11009ft 193kts
27-May-21 09:33 34.763215 -116.842094 83 11004ft 193kts
27-May-21 09:34 34.770086 -116.777187 85 11004ft 193kts
27-May-21 09:34 34.774685 -116.723216 86 11004ft 192kts
27-May-21 09:35 34.779282 -116.658562 87 11004ft 192kts
27-May-21 09:36 34.784180 -116.593723 86 11004ft 192kts
27-May-21 09:38 34.790754 -116.518555 85 11004ft 192kts
27-May-21 09:38 34.801426 -116.466963 43 11006ft 197kts
27-May-21 09:39 34.837222 -116.417177 55 11004ft 196kts
27-May-21 09:41 34.879259 -116.359369 47 11010ft 196kts
27-May-21 09:41 34.911211 -116.319478 47 11017ft 197kts
27-May-21 09:42 34.948128 -116.269848 50 11022ft 198kts
27-May-21 09:43 34.983354 -116.218120 50 11022ft 199kts
27-May-21 09:44 35.018375 -116.165680 50 11018ft 199kts
27-May-21 09:45 35.055948 -116.116436 43 11012ft 198kts
27-May-21 09:46 35.095969 -116.070757 42 11012ft 197kts
27-May-21 09:47 35.135189 -116.023825 44 11013ft 197kts
27-May-21 09:48 35.173197 -115.975576 48 11013ft 197kts
27-May-21 09:49 35.209401 -115.925415 48 11013ft 197kts
27-May-21 09:50 35.245377 -115.874724 48 11013ft 197kts
27-May-21 09:51 35.281309 -115.824269 48 11013ft 197kts
27-May-21 09:52 35.318305 -115.774228 47 11013ft 198kts
27-May-21 09:53 35.355186 -115.724406 46 11028ft 197kts
27-May-21 09:54 35.396274 -115.673682 44 10365ft 219kts
27-May-21 09:55 35.438379 -115.620335 46 10030ft 211kts
27-May-21 09:56 35.477648 -115.568931 46 10030ft 203kts
27-May-21 09:57 35.515367 -115.517939 47 10031ft 200kts
27-May-21 09:58 35.552223 -115.466786 48 10031ft 200kts
27-May-21 09:59 35.588840 -115.415343 48 10031ft 200kts
27-May-21 10:00 35.625404 -115.363967 48 10022ft 200kts
27-May-21 10:01 35.662033 -115.312496 48 10021ft 200kts
27-May-21 10:02 35.700318 -115.263075 45 10021ft 199kts
27-May-21 10:03 35.739687 -115.214860 44 10022ft 199kts
27-May-21 10:04 35.779176 -115.166885 37 10010ft 200kts
27-May-21 10:05 35.833434 -115.160042 1 9445ft 203kts
27-May-21 10:06 35.887571 -115.143528 20 8749ft 199kts
27-May-21 10:07 35.934180 -115.120365 21 8021ft 169kts
27-May-21 10:08 35.977380 -115.098815 21 7318ft 167kts
27-May-21 10:09 36.019924 -115.077573 21 6615ft 161kts
27-May-21 10:10 36.060060 -115.057458 21 5860ft 154kts
27-May-21 10:11 36.095227 -115.066224 296 4582ft 151kts
27-May-21 10:12 36.107054 -115.108925 291 3579ft 92kts
27-May-21 10:13 36.113918 -115.137320 290 2826ft 85kts
27-May-21 10:14 36.098907 -115.156750 206 2098ft 67kts
27-May-21 10:15 36.094175 -115.160804 302 2105ft 0kts
27-May-21 10:16 36.098019 -115.161101 301 2100ft 13kts
27-May-21 10:17 36.098135 -115.161376 290 2101ft 0kts

Navigation Log

Ident Type
Flight plan parsing failed, navigation log unavailable